72.9°F
Current conditions from King Hill
Updated every 5 minutes
 
  Wednesday August 27, 2014

Station Historical Data
Daily Summary for October 4, 2011 Units:  Both    English   Metric
« Previous Day
Next Day »
Daily Weekly Monthly Yearly Custom
  High: Low: Average:
Temperature: 57.3 °F /  14.1 °C 49.1 °F /  9.5 °C 53.1 °F /  11.7 °C
Dew Point: 55.3 °F /  12.9 °C 48.0 °F /  8.9 °C 51.9 °F /  11.1 °C
Humidity: 97% 91% 96%
Wind Speed: 5.0mph /  8km/h - 1.3mph /  2.1km/h
Wind Gust: 19.0mph /  30.6km/h - -
Wind- - SE
Pressure: 30.04 in /  1017.2 hPa 29.99 in /  1015.5 hPa -
Precipitation: 0.02 in /  0.5 mm    
Historical Graphs
 
 
Tabular Data for October 4, 2011
Time Temperature Dew Point Pressure Wind Wind Speed Wind Gust Humidity Daily Rainfall
00:00 52.6 °F /  11.4 °C 51.5 °F /  10.8 °C 30.04in /  1017.2hPa Calm     96% 0.16in /  4.1mm
00:05 52.6 °F /  11.4 °C 51.5 °F /  10.8 °C 30.04in /  1017.2hPa Calm     96% 0.00in /  0mm
00:10 52.6 °F /  11.4 °C 51.5 °F /  10.8 °C 30.04in /  1017.2hPa NNW 1.0mph /  1.6km/h 3.0mph /  4.8km/h 96% 0.00in /  0mm
00:15 52.8 °F /  11.6 °C 51.7 °F /  10.9 °C 30.04in /  1017.2hPa Calm   3.0mph /  4.8km/h 96% 0.00in /  0mm
00:20 53.0 °F /  11.7 °C 51.9 °F /  11.1 °C 30.03in /  1016.8hPa Calm   2.0mph /  3.2km/h 96% 0.00in /  0mm
00:25 53.0 °F /  11.7 °C 51.9 °F /  11.1 °C 30.03in /  1016.8hPa Calm     96% 0.00in /  0mm
00:30 53.0 °F /  11.7 °C 51.9 °F /  11.1 °C 30.04in /  1017.2hPa Calm     96% 0.00in /  0mm
00:40 52.8 °F /  11.6 °C 51.7 °F /  10.9 °C 30.04in /  1017.2hPa Calm     96% 0.01in /  0.3mm
00:45 52.9 °F /  11.6 °C 51.8 °F /  11 °C 30.04in /  1017.2hPa Calm     96% 0.01in /  0.3mm
00:50 52.9 °F /  11.6 °C 51.8 °F /  11 °C 30.04in /  1017.2hPa Calm     96% 0.01in /  0.3mm
00:55 53.0 °F /  11.7 °C 51.9 °F /  11.1 °C 30.04in /  1017.2hPa Calm     96% 0.01in /  0.3mm
01:00 53.0 °F /  11.7 °C 51.9 °F /  11.1 °C 30.03in /  1016.8hPa Calm     96% 0.01in /  0.3mm
01:05 53.0 °F /  11.7 °C 51.9 °F /  11.1 °C 30.03in /  1016.8hPa Calm     96% 0.01in /  0.3mm
01:10 53.0 °F /  11.7 °C 51.9 °F /  11.1 °C 30.03in /  1016.8hPa Calm     96% 0.01in /  0.3mm
01:15 52.9 °F /  11.6 °C 51.8 °F /  11 °C 30.03in /  1016.8hPa Calm     96% 0.01in /  0.3mm
01:20 52.9 °F /  11.6 °C 51.8 °F /  11 °C 30.03in /  1016.8hPa Calm     96% 0.01in /  0.3mm
01:30 52.8 °F /  11.6 °C 51.7 °F /  10.9 °C 30.03in /  1016.8hPa Calm     96% 0.01in /  0.3mm
01:35 52.8 °F /  11.6 °C 51.7 °F /  10.9 °C 30.03in /  1016.8hPa Calm     96% 0.01in /  0.3mm
01:45 52.9 °F /  11.6 °C 51.8 °F /  11 °C 30.03in /  1016.8hPa Calm     96% 0.01in /  0.3mm
01:50 53.0 °F /  11.7 °C 51.9 °F /  11.1 °C 30.02in /  1016.5hPa Calm     96% 0.01in /  0.3mm
01:55 53.1 °F /  11.7 °C 52.0 °F /  11.1 °C 30.02in /  1016.5hPa Calm     96% 0.01in /  0.3mm
02:00 53.1 °F /  11.7 °C 52.0 °F /  11.1 °C 30.02in /  1016.5hPa Calm     96% 0.01in /  0.3mm
02:05 53.2 °F /  11.8 °C 52.1 °F /  11.2 °C 30.02in /  1016.5hPa Calm     96% 0.01in /  0.3mm
02:10 53.2 °F /  11.8 °C 52.1 °F /  11.2 °C 30.02in /  1016.5hPa Calm   1.0mph /  1.6km/h 96% 0.01in /  0.3mm
02:15 53.2 °F /  11.8 °C 52.1 °F /  11.2 °C 30.02in /  1016.5hPa Calm   1.0mph /  1.6km/h 96% 0.01in /  0.3mm
02:20 53.2 °F /  11.8 °C 52.1 °F /  11.2 °C 30.02in /  1016.5hPa NNW 1.0mph /  1.6km/h 2.0mph /  3.2km/h 96% 0.01in /  0.3mm
02:25 53.2 °F /  11.8 °C 52.1 °F /  11.2 °C 30.02in /  1016.5hPa Calm   2.0mph /  3.2km/h 96% 0.01in /  0.3mm
02:30 53.2 °F /  11.8 °C 52.1 °F /  11.2 °C 30.02in /  1016.5hPa Calm   1.0mph /  1.6km/h 96% 0.01in /  0.3mm
02:35 53.2 °F /  11.8 °C 52.1 °F /  11.2 °C 30.02in /  1016.5hPa Calm     96% 0.01in /  0.3mm
02:40 53.2 °F /  11.8 °C 52.1 °F /  11.2 °C 30.02in /  1016.5hPa Calm     96% 0.01in /  0.3mm
02:45 53.2 °F /  11.8 °C 52.4 °F /  11.3 °C 30.02in /  1016.5hPa Calm     97% 0.01in /  0.3mm
02:50 53.2 °F /  11.8 °C 52.4 °F /  11.3 °C 30.02in /  1016.5hPa Calm     97% 0.01in /  0.3mm
02:55 53.3 °F /  11.8 °C 52.5 °F /  11.4 °C 30.02in /  1016.5hPa Calm   1.0mph /  1.6km/h 97% 0.01in /  0.3mm
03:00 53.3 °F /  11.8 °C 52.5 °F /  11.4 °C 30.02in /  1016.5hPa Calm   1.0mph /  1.6km/h 97% 0.01in /  0.3mm
03:05 53.3 °F /  11.8 °C 52.5 °F /  11.4 °C 30.02in /  1016.5hPa Calm     97% 0.01in /  0.3mm
03:10 53.3 °F /  11.8 °C 52.5 °F /  11.4 °C 30.02in /  1016.5hPa Calm     97% 0.01in /  0.3mm
03:15 53.3 °F /  11.8 °C 52.2 °F /  11.2 °C 30.02in /  1016.5hPa Calm   2.0mph /  3.2km/h 96% 0.01in /  0.3mm
03:20 53.3 °F /  11.8 °C 52.5 °F /  11.4 °C 30.02in /  1016.5hPa Calm   2.0mph /  3.2km/h 97% 0.01in /  0.3mm
03:25 53.3 °F /  11.8 °C 52.2 °F /  11.2 °C 30.02in /  1016.5hPa Calm   1.0mph /  1.6km/h 96% 0.01in /  0.3mm
03:30 53.4 °F /  11.9 °C 52.3 °F /  11.3 °C 30.02in /  1016.5hPa Calm   1.0mph /  1.6km/h 96% 0.01in /  0.3mm
03:35 53.4 °F /  11.9 °C 52.3 °F /  11.3 °C 30.02in /  1016.5hPa Calm   3.0mph /  4.8km/h 96% 0.01in /  0.3mm
03:40 53.3 °F /  11.8 °C 52.5 °F /  11.4 °C 30.02in /  1016.5hPa Calm   3.0mph /  4.8km/h 97% 0.01in /  0.3mm
03:45 53.1 °F /  11.7 °C 52.3 °F /  11.3 °C 30.02in /  1016.5hPa Calm   1.0mph /  1.6km/h 97% 0.01in /  0.3mm
03:50 53.0 °F /  11.7 °C 51.9 °F /  11.1 °C 30.02in /  1016.5hPa Calm     96% 0.01in /  0.3mm
03:55 52.8 °F /  11.6 °C 51.7 °F /  10.9 °C 30.02in /  1016.5hPa Calm     96% 0.01in /  0.3mm
04:00 52.8 °F /  11.6 °C 51.7 °F /  10.9 °C 30.02in /  1016.5hPa Calm     96% 0.01in /  0.3mm
04:10 52.6 °F /  11.4 °C 51.5 °F /  10.8 °C 30.02in /  1016.5hPa Calm     96% 0.01in /  0.3mm
04:15 52.5 °F /  11.4 °C 51.4 °F /  10.8 °C 30.02in /  1016.5hPa Calm     96% 0.01in /  0.3mm
04:20 52.4 °F /  11.3 °C 51.6 °F /  10.9 °C 30.02in /  1016.5hPa Calm     97% 0.01in /  0.3mm
04:25 52.1 °F /  11.2 °C 51.0 °F /  10.6 °C 30.02in /  1016.5hPa Calm     96% 0.01in /  0.3mm
04:30 51.8 °F /  11 °C 50.7 °F /  10.4 °C 30.02in /  1016.5hPa Calm     96% 0.01in /  0.3mm
04:35 51.5 °F /  10.8 °C 50.4 °F /  10.2 °C 30.02in /  1016.5hPa Calm     96% 0.01in /  0.3mm
04:40 51.2 °F /  10.7 °C 50.1 °F /  10.1 °C 30.01in /  1016.1hPa Calm     96% 0.01in /  0.3mm
04:45 50.8 °F /  10.4 °C 49.7 °F /  9.8 °C 30.01in /  1016.1hPa Calm     96% 0.01in /  0.3mm
04:50 50.3 °F /  10.2 °C 49.2 °F /  9.6 °C 30.01in /  1016.1hPa Calm     96% 0.01in /  0.3mm
04:55 49.9 °F /  9.9 °C 48.8 °F /  9.3 °C 30.01in /  1016.1hPa Calm     96% 0.01in /  0.3mm
05:00 49.7 °F /  9.8 °C 48.6 °F /  9.2 °C 30.01in /  1016.1hPa Calm     96% 0.01in /  0.3mm
05:05 49.6 °F /  9.8 °C 48.5 °F /  9.2 °C 30.01in /  1016.1hPa Calm     96% 0.01in /  0.3mm
05:10 49.4 °F /  9.7 °C 48.3 °F /  9.1 °C 30.01in /  1016.1hPa Calm   2.0mph /  3.2km/h 96% 0.01in /  0.3mm
05:15 49.2 °F /  9.6 °C 48.1 °F /  8.9 °C 30.01in /  1016.1hPa Calm   2.0mph /  3.2km/h 96% 0.01in /  0.3mm
05:20 49.1 °F /  9.5 °C 48.0 °F /  8.9 °C 30.02in /  1016.5hPa Calm   4.0mph /  6.4km/h 96% 0.01in /  0.3mm
05:25 50.0 °F /  10 °C 48.9 °F /  9.4 °C 30.01in /  1016.1hPa Calm   4.0mph /  6.4km/h 96% 0.01in /  0.3mm
05:30 50.7 °F /  10.4 °C 49.9 °F /  9.9 °C 30.01in /  1016.1hPa Calm   4.0mph /  6.4km/h 97% 0.01in /  0.3mm
05:35 51.2 °F /  10.7 °C 50.4 °F /  10.2 °C 30.02in /  1016.5hPa Calm     97% 0.01in /  0.3mm
05:40 51.4 °F /  10.8 °C 50.6 °F /  10.3 °C 30.02in /  1016.5hPa Calm     97% 0.01in /  0.3mm
05:45 51.6 °F /  10.9 °C 50.8 °F /  10.4 °C 30.02in /  1016.5hPa Calm     97% 0.01in /  0.3mm
05:50 51.8 °F /  11 °C 51.0 °F /  10.6 °C 30.02in /  1016.5hPa Calm   1.0mph /  1.6km/h 97% 0.01in /  0.3mm
05:55 51.9 °F /  11.1 °C 51.1 °F /  10.6 °C 30.02in /  1016.5hPa Calm   1.0mph /  1.6km/h 97% 0.01in /  0.3mm
06:00 51.9 °F /  11.1 °C 51.1 °F /  10.6 °C 30.02in /  1016.5hPa Calm   2.0mph /  3.2km/h 97% 0.01in /  0.3mm
06:05 51.9 °F /  11.1 °C 51.1 °F /  10.6 °C 30.02in /  1016.5hPa Calm   2.0mph /  3.2km/h 97% 0.01in /  0.3mm
06:10 51.8 °F /  11 °C 50.7 °F /  10.4 °C 30.02in /  1016.5hPa Calm   1.0mph /  1.6km/h 96% 0.01in /  0.3mm
06:15 51.7 °F /  10.9 °C 50.6 °F /  10.3 °C 30.02in /  1016.5hPa Calm     96% 0.01in /  0.3mm
06:20 51.7 °F /  10.9 °C 50.6 °F /  10.3 °C 30.02in /  1016.5hPa Calm   2.0mph /  3.2km/h 96% 0.01in /  0.3mm
06:25 51.7 °F /  10.9 °C 50.6 °F /  10.3 °C 30.02in /  1016.5hPa Calm   2.0mph /  3.2km/h 96% 0.01in /  0.3mm
06:30 51.7 °F /  10.9 °C 50.6 °F /  10.3 °C 30.02in /  1016.5hPa Calm   4.0mph /  6.4km/h 96% 0.01in /  0.3mm
06:35 51.6 °F /  10.9 °C 50.5 °F /  10.3 °C 30.02in /  1016.5hPa Calm   4.0mph /  6.4km/h 96% 0.01in /  0.3mm
06:40 51.5 °F /  10.8 °C 50.7 °F /  10.4 °C 30.02in /  1016.5hPa Calm   3.0mph /  4.8km/h 97% 0.01in /  0.3mm
06:45 51.4 °F /  10.8 °C 50.6 °F /  10.3 °C 30.02in /  1016.5hPa Calm   2.0mph /  3.2km/h 97% 0.01in /  0.3mm
06:50 51.4 °F /  10.8 °C 50.6 °F /  10.3 °C 30.02in /  1016.5hPa Calm   2.0mph /  3.2km/h 97% 0.01in /  0.3mm
06:55 51.4 °F /  10.8 °C 50.6 °F /  10.3 °C 30.02in /  1016.5hPa Calm   2.0mph /  3.2km/h 97% 0.01in /  0.3mm
07:00 51.4 °F /  10.8 °C 50.6 °F /  10.3 °C 30.02in /  1016.5hPa Calm   1.0mph /  1.6km/h 97% 0.02in /  0.5mm
07:05 51.5 °F /  10.8 °C 50.7 °F /  10.4 °C 30.02in /  1016.5hPa Calm   1.0mph /  1.6km/h 97% 0.02in /  0.5mm
07:10 51.5 °F /  10.8 °C 50.7 °F /  10.4 °C 30.02in /  1016.5hPa Calm     97% 0.02in /  0.5mm
07:15 51.5 °F /  10.8 °C 50.7 °F /  10.4 °C 30.02in /  1016.5hPa NNW 1.0mph /  1.6km/h 2.0mph /  3.2km/h 97% 0.02in /  0.5mm
07:20 51.5 °F /  10.8 °C 50.7 °F /  10.4 °C 30.02in /  1016.5hPa Calm   2.0mph /  3.2km/h 97% 0.02in /  0.5mm
07:25 51.5 °F /  10.8 °C 50.7 °F /  10.4 °C 30.02in /  1016.5hPa Calm   2.0mph /  3.2km/h 97% 0.02in /  0.5mm
07:30 51.5 °F /  10.8 °C 50.7 °F /  10.4 °C 30.03in /  1016.8hPa Calm   2.0mph /  3.2km/h 97% 0.02in /  0.5mm
07:35 51.6 °F /  10.9 °C 50.8 °F /  10.4 °C 30.03in /  1016.8hPa Calm   1.0mph /  1.6km/h 97% 0.02in /  0.5mm
07:40 51.7 °F /  10.9 °C 50.9 °F /  10.5 °C 30.03in /  1016.8hPa Calm   1.0mph /  1.6km/h 97% 0.02in /  0.5mm
07:45 51.8 °F /  11 °C 51.0 °F /  10.6 °C 30.03in /  1016.8hPa Calm   1.0mph /  1.6km/h 97% 0.02in /  0.5mm
07:50 51.9 °F /  11.1 °C 51.1 °F /  10.6 °C 30.03in /  1016.8hPa Calm     97% 0.02in /  0.5mm
07:55 51.9 °F /  11.1 °C 51.1 °F /  10.6 °C 30.03in /  1016.8hPa Calm   2.0mph /  3.2km/h 97% 0.02in /  0.5mm
08:00 52.0 °F /  11.1 °C 51.2 °F /  10.7 °C 30.03in /  1016.8hPa Calm   2.0mph /  3.2km/h 97% 0.02in /  0.5mm
08:05 51.9 °F /  11.1 °C 51.1 °F /  10.6 °C 30.03in /  1016.8hPa Calm   2.0mph /  3.2km/h 97% 0.02in /  0.5mm
08:10 52.0 °F /  11.1 °C 51.2 °F /  10.7 °C 30.03in /  1016.8hPa Calm   2.0mph /  3.2km/h 97% 0.02in /  0.5mm
08:15 52.2 °F /  11.2 °C 51.4 °F /  10.8 °C 30.03in /  1016.8hPa Calm   2.0mph /  3.2km/h 97% 0.02in /  0.5mm
08:20 52.3 °F /  11.3 °C 51.5 °F /  10.8 °C 30.02in /  1016.5hPa Calm   2.0mph /  3.2km/h 97% 0.02in /  0.5mm
08:25 52.3 °F /  11.3 °C 51.5 °F /  10.8 °C 30.02in /  1016.5hPa Calm   2.0mph /  3.2km/h 97% 0.02in /  0.5mm
08:30 52.4 °F /  11.3 °C 51.6 °F /  10.9 °C 30.02in /  1016.5hPa Calm   1.0mph /  1.6km/h 97% 0.02in /  0.5mm
08:35 52.5 °F /  11.4 °C 51.7 °F /  10.9 °C 30.03in /  1016.8hPa Calm   2.0mph /  3.2km/h 97% 0.02in /  0.5mm
08:40 52.7 °F /  11.5 °C 51.9 °F /  11.1 °C 30.03in /  1016.8hPa Calm   2.0mph /  3.2km/h 97% 0.02in /  0.5mm
08:45 52.9 °F /  11.6 °C 52.1 °F /  11.2 °C 30.03in /  1016.8hPa Calm   2.0mph /  3.2km/h 97% 0.02in /  0.5mm
08:50 53.1 °F /  11.7 °C 52.3 °F /  11.3 °C 30.03in /  1016.8hPa Calm   2.0mph /  3.2km/h 97% 0.02in /  0.5mm
08:55 53.1 °F /  11.7 °C 52.3 °F /  11.3 °C 30.03in /  1016.8hPa Calm   3.0mph /  4.8km/h 97% 0.02in /  0.5mm
09:00 53.0 °F /  11.7 °C 52.2 °F /  11.2 °C 30.03in /  1016.8hPa Calm   3.0mph /  4.8km/h 97% 0.02in /  0.5mm
09:05 53.0 °F /  11.7 °C 52.2 °F /  11.2 °C 30.03in /  1016.8hPa Calm   3.0mph /  4.8km/h 97% 0.02in /  0.5mm
09:10 53.1 °F /  11.7 °C 52.3 °F /  11.3 °C 30.03in /  1016.8hPa Calm   3.0mph /  4.8km/h 97% 0.02in /  0.5mm
09:15 53.0 °F /  11.7 °C 52.2 °F /  11.2 °C 30.03in /  1016.8hPa Calm   3.0mph /  4.8km/h 97% 0.02in /  0.5mm
09:20 52.9 °F /  11.6 °C 52.1 °F /  11.2 °C 30.03in /  1016.8hPa NNW 1.0mph /  1.6km/h 4.0mph /  6.4km/h 97% 0.02in /  0.5mm
09:25 52.7 °F /  11.5 °C 51.9 °F /  11.1 °C 30.03in /  1016.8hPa NNW 1.0mph /  1.6km/h 4.0mph /  6.4km/h 97% 0.02in /  0.5mm
09:35 52.4 °F /  11.3 °C 51.6 °F /  10.9 °C 30.03in /  1016.8hPa Calm   4.0mph /  6.4km/h 97% 0.02in /  0.5mm
09:40 52.4 °F /  11.3 °C 51.6 °F /  10.9 °C 30.03in /  1016.8hPa Calm   2.0mph /  3.2km/h 97% 0.02in /  0.5mm
09:45 52.4 °F /  11.3 °C 51.6 °F /  10.9 °C 30.04in /  1017.2hPa NW 1.0mph /  1.6km/h 5.0mph /  8km/h 97% 0.02in /  0.5mm
09:50 52.2 °F /  11.2 °C 51.4 °F /  10.8 °C 30.04in /  1017.2hPa NW 2.0mph /  3.2km/h 5.0mph /  8km/h 97% 0.02in /  0.5mm
09:55 52.3 °F /  11.3 °C 51.5 °F /  10.8 °C 30.04in /  1017.2hPa North 1.0mph /  1.6km/h 5.0mph /  8km/h 97% 0.02in /  0.5mm
10:00 52.3 °F /  11.3 °C 51.5 °F /  10.8 °C 30.03in /  1016.8hPa Calm   6.0mph /  9.7km/h 97% 0.02in /  0.5mm
10:05 52.3 °F /  11.3 °C 51.5 °F /  10.8 °C 30.03in /  1016.8hPa Calm   6.0mph /  9.7km/h 97% 0.02in /  0.5mm
10:10 52.4 °F /  11.3 °C 51.6 °F /  10.9 °C 30.03in /  1016.8hPa Calm   4.0mph /  6.4km/h 97% 0.02in /  0.5mm
10:15 52.4 °F /  11.3 °C 51.6 °F /  10.9 °C 30.04in /  1017.2hPa Calm   2.0mph /  3.2km/h 97% 0.02in /  0.5mm
10:20 52.2 °F /  11.2 °C 51.4 °F /  10.8 °C 30.04in /  1017.2hPa North 1.0mph /  1.6km/h 6.0mph /  9.7km/h 97% 0.02in /  0.5mm
10:25 52.0 °F /  11.1 °C 51.2 °F /  10.7 °C 30.04in /  1017.2hPa NNE 1.0mph /  1.6km/h 6.0mph /  9.7km/h 97% 0.02in /  0.5mm
10:30 52.1 °F /  11.2 °C 51.3 °F /  10.7 °C 30.04in /  1017.2hPa NNE 1.0mph /  1.6km/h 5.0mph /  8km/h 97% 0.02in /  0.5mm
10:35 52.3 °F /  11.3 °C 51.5 °F /  10.8 °C 30.04in /  1017.2hPa Calm   5.0mph /  8km/h 97% 0.02in /  0.5mm
10:40 52.6 °F /  11.4 °C 51.8 °F /  11 °C 30.04in /  1017.2hPa Calm   5.0mph /  8km/h 97% 0.02in /  0.5mm
10:45 52.8 °F /  11.6 °C 52.0 °F /  11.1 °C 30.04in /  1017.2hPa Calm   2.0mph /  3.2km/h 97% 0.02in /  0.5mm
10:50 53.0 °F /  11.7 °C 52.2 °F /  11.2 °C 30.04in /  1017.2hPa Calm   1.0mph /  1.6km/h 97% 0.02in /  0.5mm
10:55 53.1 °F /  11.7 °C 52.3 °F /  11.3 °C 30.03in /  1016.8hPa Calm   4.0mph /  6.4km/h 97% 0.02in /  0.5mm
11:00 53.1 °F /  11.7 °C 52.3 °F /  11.3 °C 30.04in /  1017.2hPa Calm   4.0mph /  6.4km/h 97% 0.02in /  0.5mm
11:05 53.3 °F /  11.8 °C 52.5 °F /  11.4 °C 30.04in /  1017.2hPa Calm   2.0mph /  3.2km/h 97% 0.02in /  0.5mm
11:10 53.2 °F /  11.8 °C 52.4 °F /  11.3 °C 30.03in /  1016.8hPa NNE 1.0mph /  1.6km/h 4.0mph /  6.4km/h 97% 0.02in /  0.5mm
11:15 53.1 °F /  11.7 °C 52.3 °F /  11.3 °C 30.03in /  1016.8hPa Calm   4.0mph /  6.4km/h 97% 0.02in /  0.5mm
11:20 53.1 °F /  11.7 °C 52.3 °F /  11.3 °C 30.03in /  1016.8hPa NNE 1.0mph /  1.6km/h 3.0mph /  4.8km/h 97% 0.02in /  0.5mm
11:25 53.1 °F /  11.7 °C 52.3 °F /  11.3 °C 30.03in /  1016.8hPa Calm   3.0mph /  4.8km/h 97% 0.02in /  0.5mm
11:35 53.6 °F /  12 °C 52.8 °F /  11.6 °C 30.03in /  1016.8hPa Calm   2.0mph /  3.2km/h 97% 0.02in /  0.5mm
11:40 53.3 °F /  11.8 °C 52.5 °F /  11.4 °C 30.03in /  1016.8hPa Calm   5.0mph /  8km/h 97% 0.02in /  0.5mm
11:45 53.3 °F /  11.8 °C 52.5 °F /  11.4 °C 30.03in /  1016.8hPa Calm   5.0mph /  8km/h 97% 0.02in /  0.5mm
11:50 53.3 °F /  11.8 °C 52.5 °F /  11.4 °C 30.03in /  1016.8hPa Calm   1.0mph /  1.6km/h 97% 0.02in /  0.5mm
11:55 53.6 °F /  12 °C 52.8 °F /  11.6 °C 30.03in /  1016.8hPa Calm   2.0mph /  3.2km/h 97% 0.02in /  0.5mm
12:00 53.6 °F /  12 °C 52.8 °F /  11.6 °C 30.03in /  1016.8hPa Calm   2.0mph /  3.2km/h 97% 0.02in /  0.5mm
12:05 53.6 °F /  12 °C 52.8 °F /  11.6 °C 30.03in /  1016.8hPa Calm   2.0mph /  3.2km/h 97% 0.02in /  0.5mm
12:10 53.8 °F /  12.1 °C 53.0 °F /  11.7 °C 30.03in /  1016.8hPa NNE 1.0mph /  1.6km/h 3.0mph /  4.8km/h 97% 0.02in /  0.5mm
12:15 53.8 °F /  12.1 °C 53.0 °F /  11.7 °C 30.03in /  1016.8hPa Calm   3.0mph /  4.8km/h 97% 0.02in /  0.5mm
12:20 53.8 °F /  12.1 °C 53.0 °F /  11.7 °C 30.03in /  1016.8hPa Calm   1.0mph /  1.6km/h 97% 0.02in /  0.5mm
12:30 53.8 °F /  12.1 °C 53.0 °F /  11.7 °C 30.03in /  1016.8hPa NE 1.0mph /  1.6km/h 4.0mph /  6.4km/h 97% 0.02in /  0.5mm
12:40 53.6 °F /  12 °C 52.8 °F /  11.6 °C 30.03in /  1016.8hPa ENE 1.0mph /  1.6km/h 5.0mph /  8km/h 97% 0.02in /  0.5mm
12:50 54.0 °F /  12.2 °C 53.2 °F /  11.8 °C 30.03in /  1016.8hPa NE 1.0mph /  1.6km/h 3.0mph /  4.8km/h 97% 0.02in /  0.5mm
12:55 54.1 °F /  12.3 °C 53.3 °F /  11.8 °C 30.02in /  1016.5hPa NE 1.0mph /  1.6km/h 3.0mph /  4.8km/h 97% 0.02in /  0.5mm
13:00 54.4 °F /  12.4 °C 53.6 °F /  12 °C 30.02in /  1016.5hPa Calm   3.0mph /  4.8km/h 97% 0.02in /  0.5mm
13:05 55.0 °F /  12.8 °C 54.2 °F /  12.3 °C 30.02in /  1016.5hPa Calm   2.0mph /  3.2km/h 97% 0.02in /  0.5mm
13:10 55.3 °F /  12.9 °C 54.5 °F /  12.5 °C 30.01in /  1016.1hPa NE 2.0mph /  3.2km/h 6.0mph /  9.7km/h 97% 0.02in /  0.5mm
13:15 55.4 °F /  13 °C 54.6 °F /  12.6 °C 30.01in /  1016.1hPa Calm   6.0mph /  9.7km/h 97% 0.02in /  0.5mm
13:20 55.4 °F /  13 °C 54.6 °F /  12.6 °C 30.01in /  1016.1hPa North 1.0mph /  1.6km/h 9.0mph /  14.5km/h 97% 0.02in /  0.5mm
13:25 55.0 °F /  12.8 °C 54.2 °F /  12.3 °C 30.01in /  1016.1hPa NE 3.0mph /  4.8km/h 9.0mph /  14.5km/h 97% 0.02in /  0.5mm
13:30 54.5 °F /  12.5 °C 53.7 °F /  12.1 °C 30.01in /  1016.1hPa NNE 2.0mph /  3.2km/h 11.0mph /  17.7km/h 97% 0.02in /  0.5mm
13:35 54.4 °F /  12.4 °C 53.6 °F /  12 °C 30.01in /  1016.1hPa NE 1.0mph /  1.6km/h 11.0mph /  17.7km/h 97% 0.02in /  0.5mm
13:40 54.5 °F /  12.5 °C 53.7 °F /  12.1 °C 30.00in /  1015.8hPa Calm   9.0mph /  14.5km/h 97% 0.02in /  0.5mm
13:45 54.6 °F /  12.6 °C 53.8 °F /  12.1 °C 30.00in /  1015.8hPa Calm   6.0mph /  9.7km/h 97% 0.02in /  0.5mm
13:50 55.2 °F /  12.9 °C 54.4 °F /  12.4 °C 30.00in /  1015.8hPa Calm   4.0mph /  6.4km/h 97% 0.02in /  0.5mm
13:55 55.5 °F /  13.1 °C 54.7 °F /  12.6 °C 30.00in /  1015.8hPa Calm   4.0mph /  6.4km/h 97% 0.02in /  0.5mm
14:00 55.9 °F /  13.3 °C 55.1 °F /  12.8 °C 30.00in /  1015.8hPa NW 1.0mph /  1.6km/h 4.0mph /  6.4km/h 97% 0.02in /  0.5mm
14:05 55.7 °F /  13.2 °C 54.9 °F /  12.7 °C 30.00in /  1015.8hPa NW 2.0mph /  3.2km/h 7.0mph /  11.3km/h 97% 0.02in /  0.5mm
14:10 55.5 °F /  13.1 °C 54.7 °F /  12.6 °C 30.00in /  1015.8hPa NW 3.0mph /  4.8km/h 10.0mph /  16.1km/h 97% 0.02in /  0.5mm
14:15 55.2 °F /  12.9 °C 54.4 °F /  12.4 °C 30.00in /  1015.8hPa NW 4.0mph /  6.4km/h 10.0mph /  16.1km/h 97% 0.02in /  0.5mm
14:20 55.2 °F /  12.9 °C 54.4 °F /  12.4 °C 30.00in /  1015.8hPa NW 1.0mph /  1.6km/h 8.0mph /  12.9km/h 97% 0.02in /  0.5mm
14:25 55.3 °F /  12.9 °C 54.2 °F /  12.3 °C 30.00in /  1015.8hPa Calm   8.0mph /  12.9km/h 96% 0.02in /  0.5mm
14:30 55.4 °F /  13 °C 54.3 °F /  12.4 °C 30.00in /  1015.8hPa NW 1.0mph /  1.6km/h 7.0mph /  11.3km/h 96% 0.02in /  0.5mm
14:35 55.4 °F /  13 °C 54.3 °F /  12.4 °C 30.00in /  1015.8hPa Calm   7.0mph /  11.3km/h 96% 0.02in /  0.5mm
14:40 55.5 °F /  13.1 °C 54.4 °F /  12.4 °C 30.00in /  1015.8hPa NNW 1.0mph /  1.6km/h 7.0mph /  11.3km/h 96% 0.02in /  0.5mm
14:45 55.9 °F /  13.3 °C 54.8 °F /  12.7 °C 30.00in /  1015.8hPa NNW 2.0mph /  3.2km/h 9.0mph /  14.5km/h 96% 0.02in /  0.5mm
14:50 55.5 °F /  13.1 °C 54.1 °F /  12.3 °C 30.00in /  1015.8hPa NW 5.0mph /  8km/h 10.0mph /  16.1km/h 95% 0.02in /  0.5mm
14:55 55.5 °F /  13.1 °C 54.1 °F /  12.3 °C 30.00in /  1015.8hPa NNW 1.0mph /  1.6km/h 10.0mph /  16.1km/h 95% 0.02in /  0.5mm
15:00 55.9 °F /  13.3 °C 54.5 °F /  12.5 °C 30.00in /  1015.8hPa NNE 1.0mph /  1.6km/h 7.0mph /  11.3km/h 95% 0.02in /  0.5mm
15:05 56.3 °F /  13.5 °C 54.9 °F /  12.7 °C 30.00in /  1015.8hPa NW 1.0mph /  1.6km/h 5.0mph /  8km/h 95% 0.02in /  0.5mm
15:10 56.2 °F /  13.4 °C 54.5 °F /  12.5 °C 30.00in /  1015.8hPa Calm   6.0mph /  9.7km/h 94% 0.02in /  0.5mm
15:15 56.4 °F /  13.6 °C 55.0 °F /  12.8 °C 29.99in /  1015.5hPa Calm   6.0mph /  9.7km/h 95% 0.02in /  0.5mm
15:20 56.5 °F /  13.6 °C 54.8 °F /  12.7 °C 29.99in /  1015.5hPa NNE 1.0mph /  1.6km/h 6.0mph /  9.7km/h 94% 0.02in /  0.5mm
15:25 56.5 °F /  13.6 °C 54.5 °F /  12.5 °C 29.99in /  1015.5hPa Calm   7.0mph /  11.3km/h 93% 0.02in /  0.5mm
15:30 56.9 °F /  13.8 °C 55.2 °F /  12.9 °C 29.99in /  1015.5hPa Calm   7.0mph /  11.3km/h 94% 0.02in /  0.5mm
15:35 57.2 °F /  14 °C 55.2 °F /  12.9 °C 29.99in /  1015.5hPa North 1.0mph /  1.6km/h 6.0mph /  9.7km/h 93% 0.02in /  0.5mm
15:40 57.3 °F /  14.1 °C 55.3 °F /  12.9 °C 29.99in /  1015.5hPa Calm   6.0mph /  9.7km/h 93% 0.02in /  0.5mm
15:45 57.3 °F /  14.1 °C 55.0 °F /  12.8 °C 29.99in /  1015.5hPa Calm   6.0mph /  9.7km/h 92% 0.02in /  0.5mm
15:50 57.2 °F /  14 °C 54.6 °F /  12.6 °C 29.99in /  1015.5hPa NW 3.0mph /  4.8km/h 8.0mph /  12.9km/h 91% 0.02in /  0.5mm
15:55 56.8 °F /  13.8 °C 54.5 °F /  12.5 °C 29.99in /  1015.5hPa NW 2.0mph /  3.2km/h 10.0mph /  16.1km/h 92% 0.02in /  0.5mm
16:00 56.4 °F /  13.6 °C 54.1 °F /  12.3 °C 30.00in /  1015.8hPa Calm   10.0mph /  16.1km/h 92% 0.02in /  0.5mm
16:05 56.2 °F /  13.4 °C 53.9 °F /  12.2 °C 30.00in /  1015.8hPa NW 1.0mph /  1.6km/h 8.0mph /  12.9km/h 92% 0.02in /  0.5mm
16:10 56.0 °F /  13.3 °C 54.0 °F /  12.2 °C 30.00in /  1015.8hPa Calm   8.0mph /  12.9km/h 93% 0.02in /  0.5mm
16:15 55.9 °F /  13.3 °C 53.9 °F /  12.2 °C 30.00in /  1015.8hPa NW 1.0mph /  1.6km/h 7.0mph /  11.3km/h 93% 0.02in /  0.5mm
16:20 55.7 °F /  13.2 °C 53.7 °F /  12.1 °C 30.00in /  1015.8hPa Calm   10.0mph /  16.1km/h 93% 0.02in /  0.5mm
16:25 55.6 °F /  13.1 °C 53.6 °F /  12 °C 30.00in /  1015.8hPa NW 1.0mph /  1.6km/h 10.0mph /  16.1km/h 93% 0.02in /  0.5mm
16:30 55.3 °F /  12.9 °C 53.3 °F /  11.8 °C 30.00in /  1015.8hPa NNW 4.0mph /  6.4km/h 9.0mph /  14.5km/h 93% 0.02in /  0.5mm
16:35 55.2 °F /  12.9 °C 53.2 °F /  11.8 °C 30.00in /  1015.8hPa NNE 1.0mph /  1.6km/h 9.0mph /  14.5km/h 93% 0.02in /  0.5mm
16:45 55.1 °F /  12.8 °C 53.4 °F /  11.9 °C 30.00in /  1015.8hPa Calm   19.0mph /  30.6km/h 94% 0.02in /  0.5mm
16:50 55.1 °F /  12.8 °C 53.4 °F /  11.9 °C 30.00in /  1015.8hPa NNE 1.0mph /  1.6km/h 8.0mph /  12.9km/h 94% 0.02in /  0.5mm
16:55 55.1 °F /  12.8 °C 53.4 °F /  11.9 °C 30.00in /  1015.8hPa NNE 3.0mph /  4.8km/h 11.0mph /  17.7km/h 94% 0.02in /  0.5mm
17:00 55.1 °F /  12.8 °C 53.4 °F /  11.9 °C 30.00in /  1015.8hPa Calm   11.0mph /  17.7km/h 94% 0.02in /  0.5mm
17:05 55.2 °F /  12.9 °C 53.5 °F /  11.9 °C 30.00in /  1015.8hPa Calm   5.0mph /  8km/h 94% 0.02in /  0.5mm
17:10 55.2 °F /  12.9 °C 53.5 °F /  11.9 °C 30.00in /  1015.8hPa Calm   4.0mph /  6.4km/h 94% 0.02in /  0.5mm
17:15 55.1 °F /  12.8 °C 53.4 °F /  11.9 °C 30.00in /  1015.8hPa Calm   4.0mph /  6.4km/h 94% 0.02in /  0.5mm
17:20 55.1 °F /  12.8 °C 53.4 °F /  11.9 °C 30.00in /  1015.8hPa Calm   3.0mph /  4.8km/h 94% 0.02in /  0.5mm
17:25 55.1 °F /  12.8 °C 53.4 °F /  11.9 °C 30.00in /  1015.8hPa NNE 1.0mph /  1.6km/h 4.0mph /  6.4km/h 94% 0.02in /  0.5mm
17:31 55.0 °F /  12.8 °C 53.3 °F /  11.8 °C 30.00in /  1015.8hPa Calm   4.0mph /  6.4km/h 94% 0.02in /  0.5mm
17:40 55.0 °F /  12.8 °C 53.3 °F /  11.8 °C 30.00in /  1015.8hPa NNE 1.0mph /  1.6km/h 5.0mph /  8km/h 94% 0.02in /  0.5mm
17:45 55.0 °F /  12.8 °C 53.3 °F /  11.8 °C 30.00in /  1015.8hPa NE 1.0mph /  1.6km/h 5.0mph /  8km/h 94% 0.02in /  0.5mm
17:50 55.0 °F /  12.8 °C 53.3 °F /  11.8 °C 30.00in /  1015.8hPa Calm   4.0mph /  6.4km/h 94% 0.02in /  0.5mm
17:55 54.9 °F /  12.7 °C 53.2 °F /  11.8 °C 30.00in /  1015.8hPa Calm   3.0mph /  4.8km/h 94% 0.02in /  0.5mm
18:00 54.8 °F /  12.7 °C 53.1 °F /  11.7 °C 30.00in /  1015.8hPa Calm   5.0mph /  8km/h 94% 0.02in /  0.5mm
18:05 54.7 °F /  12.6 °C 53.0 °F /  11.7 °C 30.00in /  1015.8hPa North 1.0mph /  1.6km/h 5.0mph /  8km/h 94% 0.02in /  0.5mm
18:10 54.6 °F /  12.6 °C 52.9 °F /  11.6 °C 30.00in /  1015.8hPa North 1.0mph /  1.6km/h 6.0mph /  9.7km/h 94% 0.02in /  0.5mm
18:15 54.5 °F /  12.5 °C 52.8 °F /  11.6 °C 30.00in /  1015.8hPa NNE 1.0mph /  1.6km/h 6.0mph /  9.7km/h 94% 0.02in /  0.5mm
18:20 54.3 °F /  12.4 °C 52.3 °F /  11.3 °C 30.00in /  1015.8hPa Calm   5.0mph /  8km/h 93% 0.02in /  0.5mm
18:25 54.2 °F /  12.3 °C 52.5 °F /  11.4 °C 30.00in /  1015.8hPa Calm   5.0mph /  8km/h 94% 0.02in /  0.5mm
18:30 54.1 °F /  12.3 °C 52.4 °F /  11.3 °C 30.00in /  1015.8hPa Calm   4.0mph /  6.4km/h 94% 0.02in /  0.5mm
18:35 54.0 °F /  12.2 °C 52.3 °F /  11.3 °C 30.00in /  1015.8hPa Calm   4.0mph /  6.4km/h 94% 0.02in /  0.5mm
18:40 53.9 °F /  12.2 °C 52.2 °F /  11.2 °C 30.00in /  1015.8hPa Calm   7.0mph /  11.3km/h 94% 0.02in /  0.5mm
18:45 53.9 °F /  12.2 °C 52.2 °F /  11.2 °C 30.00in /  1015.8hPa NE 1.0mph /  1.6km/h 8.0mph /  12.9km/h 94% 0.02in /  0.5mm
18:50 53.8 °F /  12.1 °C 52.1 °F /  11.2 °C 30.00in /  1015.8hPa Calm   8.0mph /  12.9km/h 94% 0.02in /  0.5mm
18:55 53.8 °F /  12.1 °C 52.1 °F /  11.2 °C 30.00in /  1015.8hPa Calm   7.0mph /  11.3km/h 94% 0.02in /  0.5mm
19:00 53.7 °F /  12.1 °C 52.0 °F /  11.1 °C 30.00in /  1015.8hPa NNE 1.0mph /  1.6km/h 9.0mph /  14.5km/h 94% 0.02in /  0.5mm
19:05 53.7 °F /  12.1 °C 52.0 °F /  11.1 °C 30.00in /  1015.8hPa NNE 1.0mph /  1.6km/h 9.0mph /  14.5km/h 94% 0.02in /  0.5mm
19:10 53.7 °F /  12.1 °C 52.0 °F /  11.1 °C 30.00in /  1015.8hPa Calm   6.0mph /  9.7km/h 94% 0.02in /  0.5mm
19:15 53.6 °F /  12 °C 51.9 °F /  11.1 °C 30.00in /  1015.8hPa NNW 1.0mph /  1.6km/h 5.0mph /  8km/h 94% 0.02in /  0.5mm
19:20 53.6 °F /  12 °C 51.9 °F /  11.1 °C 30.00in /  1015.8hPa Calm   5.0mph /  8km/h 94% 0.02in /  0.5mm
19:25 53.5 °F /  11.9 °C 51.8 °F /  11 °C 30.00in /  1015.8hPa Calm   3.0mph /  4.8km/h 94% 0.02in /  0.5mm
19:30 53.5 °F /  11.9 °C 51.8 °F /  11 °C 30.00in /  1015.8hPa North 1.0mph /  1.6km/h 5.0mph /  8km/h 94% 0.02in /  0.5mm
19:35 53.4 °F /  11.9 °C 51.7 °F /  10.9 °C 30.00in /  1015.8hPa Calm   6.0mph /  9.7km/h 94% 0.02in /  0.5mm
19:40 53.3 °F /  11.8 °C 51.9 °F /  11.1 °C 30.00in /  1015.8hPa NE 1.0mph /  1.6km/h 6.0mph /  9.7km/h 95% 0.02in /  0.5mm
19:45 53.2 °F /  11.8 °C 51.8 °F /  11 °C 30.00in /  1015.8hPa Calm   6.0mph /  9.7km/h 95% 0.02in /  0.5mm
19:50 53.2 °F /  11.8 °C 51.8 °F /  11 °C 30.00in /  1015.8hPa NNE 1.0mph /  1.6km/h 7.0mph /  11.3km/h 95% 0.02in /  0.5mm
19:55 53.2 °F /  11.8 °C 51.8 °F /  11 °C 30.00in /  1015.8hPa NNW 1.0mph /  1.6km/h 11.0mph /  17.7km/h 95% 0.02in /  0.5mm
20:00 53.1 °F /  11.7 °C 51.4 °F /  10.8 °C 30.00in /  1015.8hPa NNE 1.0mph /  1.6km/h 11.0mph /  17.7km/h 94% 0.02in /  0.5mm
20:05 53.0 °F /  11.7 °C 51.3 °F /  10.7 °C 30.00in /  1015.8hPa Calm   10.0mph /  16.1km/h 94% 0.02in /  0.5mm
20:10 53.0 °F /  11.7 °C 51.3 °F /  10.7 °C 30.00in /  1015.8hPa NNW 1.0mph /  1.6km/h 6.0mph /  9.7km/h 94% 0.02in /  0.5mm
20:15 53.0 °F /  11.7 °C 51.3 °F /  10.7 °C 30.00in /  1015.8hPa Calm   9.0mph /  14.5km/h 94% 0.02in /  0.5mm
20:20 52.9 °F /  11.6 °C 51.2 °F /  10.7 °C 30.00in /  1015.8hPa Calm   9.0mph /  14.5km/h 94% 0.02in /  0.5mm
20:25 52.9 °F /  11.6 °C 51.2 °F /  10.7 °C 30.00in /  1015.8hPa North 1.0mph /  1.6km/h 7.0mph /  11.3km/h 94% 0.02in /  0.5mm
20:30 52.8 °F /  11.6 °C 51.1 °F /  10.6 °C 30.00in /  1015.8hPa Calm   7.0mph /  11.3km/h 94% 0.02in /  0.5mm
20:35 52.7 °F /  11.5 °C 51.0 °F /  10.6 °C 30.00in /  1015.8hPa North 1.0mph /  1.6km/h 10.0mph /  16.1km/h 94% 0.02in /  0.5mm
20:40 52.6 °F /  11.4 °C 50.9 °F /  10.5 °C 30.00in /  1015.8hPa NNE 1.0mph /  1.6km/h 10.0mph /  16.1km/h 94% 0.02in /  0.5mm
20:45 52.5 °F /  11.4 °C 50.8 °F /  10.4 °C 30.00in /  1015.8hPa NNE 1.0mph /  1.6km/h 10.0mph /  16.1km/h 94% 0.02in /  0.5mm
20:50 52.5 °F /  11.4 °C 50.8 °F /  10.4 °C 30.00in /  1015.8hPa NE 1.0mph /  1.6km/h 6.0mph /  9.7km/h 94% 0.02in /  0.5mm
20:55 52.4 °F /  11.3 °C 50.7 °F /  10.4 °C 30.00in /  1015.8hPa North 1.0mph /  1.6km/h 8.0mph /  12.9km/h 94% 0.02in /  0.5mm
21:00 52.4 °F /  11.3 °C 50.7 °F /  10.4 °C 30.00in /  1015.8hPa Calm   10.0mph /  16.1km/h 94% 0.02in /  0.5mm
21:05 52.4 °F /  11.3 °C 50.7 °F /  10.4 °C 30.00in /  1015.8hPa North 1.0mph /  1.6km/h 10.0mph /  16.1km/h 94% 0.02in /  0.5mm
21:10 52.3 °F /  11.3 °C 50.6 °F /  10.3 °C 30.00in /  1015.8hPa NE 1.0mph /  1.6km/h 9.0mph /  14.5km/h 94% 0.02in /  0.5mm
21:15 52.2 °F /  11.2 °C 50.5 °F /  10.3 °C 30.00in /  1015.8hPa NNE 2.0mph /  3.2km/h 8.0mph /  12.9km/h 94% 0.02in /  0.5mm
21:20 52.2 °F /  11.2 °C 50.5 °F /  10.3 °C 30.00in /  1015.8hPa Calm   6.0mph /  9.7km/h 94% 0.02in /  0.5mm
21:25 52.1 °F /  11.2 °C 50.4 °F /  10.2 °C 30.00in /  1015.8hPa NNE 1.0mph /  1.6km/h 7.0mph /  11.3km/h 94% 0.02in /  0.5mm
21:30 52.1 °F /  11.2 °C 50.4 °F /  10.2 °C 30.00in /  1015.8hPa Calm   7.0mph /  11.3km/h 94% 0.02in /  0.5mm
21:35 52.0 °F /  11.1 °C 50.3 °F /  10.2 °C 30.00in /  1015.8hPa NNW 1.0mph /  1.6km/h 6.0mph /  9.7km/h 94% 0.02in /  0.5mm
21:40 51.9 °F /  11.1 °C 50.2 °F /  10.1 °C 30.00in /  1015.8hPa Calm   6.0mph /  9.7km/h 94% 0.02in /  0.5mm
21:45 51.9 °F /  11.1 °C 50.2 °F /  10.1 °C 30.01in /  1016.1hPa NNE 1.0mph /  1.6km/h 5.0mph /  8km/h 94% 0.02in /  0.5mm
21:50 51.8 °F /  11 °C 50.1 °F /  10.1 °C 30.01in /  1016.1hPa Calm   7.0mph /  11.3km/h 94% 0.02in /  0.5mm
21:55 51.7 °F /  10.9 °C 50.0 °F /  10 °C 30.01in /  1016.1hPa North 2.0mph /  3.2km/h 9.0mph /  14.5km/h 94% 0.02in /  0.5mm
22:00 51.6 °F /  10.9 °C 49.9 °F /  9.9 °C 30.01in /  1016.1hPa North 2.0mph /  3.2km/h 9.0mph /  14.5km/h 94% 0.02in /  0.5mm
22:05 51.5 °F /  10.8 °C 49.8 °F /  9.9 °C 30.01in /  1016.1hPa North 1.0mph /  1.6km/h 8.0mph /  12.9km/h 94% 0.02in /  0.5mm
22:15 51.4 °F /  10.8 °C 49.7 °F /  9.8 °C 30.01in /  1016.1hPa Calm   5.0mph /  8km/h 94% 0.02in /  0.5mm
22:20 51.4 °F /  10.8 °C 49.7 °F /  9.8 °C 30.01in /  1016.1hPa Calm   6.0mph /  9.7km/h 94% 0.02in /  0.5mm
22:25 51.3 °F /  10.7 °C 49.6 °F /  9.8 °C 30.01in /  1016.1hPa North 1.0mph /  1.6km/h 6.0mph /  9.7km/h 94% 0.02in /  0.5mm
22:30 51.3 °F /  10.7 °C 49.6 °F /  9.8 °C 30.01in /  1016.1hPa Calm   5.0mph /  8km/h 94% 0.02in /  0.5mm
22:35 51.3 °F /  10.7 °C 49.6 °F /  9.8 °C 30.01in /  1016.1hPa Calm   6.0mph /  9.7km/h 94% 0.02in /  0.5mm
22:40 51.2 °F /  10.7 °C 49.5 °F /  9.7 °C 30.01in /  1016.1hPa Calm   6.0mph /  9.7km/h 94% 0.02in /  0.5mm
22:45 51.2 °F /  10.7 °C 49.5 °F /  9.7 °C 30.01in /  1016.1hPa North 1.0mph /  1.6km/h 5.0mph /  8km/h 94% 0.02in /  0.5mm
22:50 51.1 °F /  10.6 °C 49.4 °F /  9.7 °C 30.01in /  1016.1hPa Calm   5.0mph /  8km/h 94% 0.02in /  0.5mm
22:55 51.0 °F /  10.6 °C 49.3 °F /  9.6 °C 30.01in /  1016.1hPa NNE 1.0mph /  1.6km/h 6.0mph /  9.7km/h 94% 0.02in /  0.5mm
23:00 50.9 °F /  10.5 °C 49.2 °F /  9.6 °C 30.01in /  1016.1hPa Calm   6.0mph /  9.7km/h 94% 0.02in /  0.5mm
23:05 50.8 °F /  10.4 °C 49.1 °F /  9.5 °C 30.01in /  1016.1hPa Calm   5.0mph /  8km/h 94% 0.02in /  0.5mm
23:10 50.8 °F /  10.4 °C 49.1 °F /  9.5 °C 30.01in /  1016.1hPa NNE 2.0mph /  3.2km/h 6.0mph /  9.7km/h 94% 0.02in /  0.5mm
23:15 50.7 °F /  10.4 °C 49.0 °F /  9.4 °C 30.01in /  1016.1hPa NNE 1.0mph /  1.6km/h 6.0mph /  9.7km/h 94% 0.02in /  0.5mm
23:20 50.7 °F /  10.4 °C 49.0 °F /  9.4 °C 30.01in /  1016.1hPa Calm   6.0mph /  9.7km/h 94% 0.02in /  0.5mm
23:25 50.6 °F /  10.3 °C 48.9 °F /  9.4 °C 30.01in /  1016.1hPa Calm   4.0mph /  6.4km/h 94% 0.02in /  0.5mm
23:30 50.6 °F /  10.3 °C 48.9 °F /  9.4 °C 30.01in /  1016.1hPa NNE 2.0mph /  3.2km/h 6.0mph /  9.7km/h 94% 0.02in /  0.5mm
23:35 50.5 °F /  10.3 °C 48.8 °F /  9.3 °C 30.01in /  1016.1hPa Calm   6.0mph /  9.7km/h 94% 0.02in /  0.5mm
23:40 50.5 °F /  10.3 °C 48.8 °F /  9.3 °C 30.01in /  1016.1hPa NNE 1.0mph /  1.6km/h 3.0mph /  4.8km/h 94% 0.02in /  0.5mm
23:45 50.5 °F /  10.3 °C 48.8 °F /  9.3 °C 30.01in /  1016.1hPa Calm   3.0mph /  4.8km/h 94% 0.02in /  0.5mm
23:50 50.5 °F /  10.3 °C 48.8 °F /  9.3 °C 30.01in /  1016.1hPa Calm   3.0mph /  4.8km/h 94% 0.02in /  0.5mm
23:55 50.4 °F /  10.2 °C 48.7 °F /  9.3 °C 30.02in /  1016.5hPa NNE 1.0mph /  1.6km/h 4.0mph /  6.4km/h 94% 0.02in /  0.5mm
Westford Weather
Compliments of Weather Underground

 
 
Current Radar Loop:

Copyright © WestfordWeather.net 2007-2014. All rights reserved.